Terminal Aerodrome Forecast
Issued by NWS

Home | Current Version | Previous Version | Text Only | Print | Product List | Glossary On
Versions: 1 2 3 4 5 6 7 8 9 10 11 12
000
FTUS45 KRIW 060500
TAFBPI
TAF
KBPI 060529Z 0606/0706 31008KT P6SM VCSH BKN060
     FM061100 33006KT P6SM SCT090
     FM062000 VRB06KT P6SM SCT060
     FM070200 13008KT P6SM VCSH BKN050
     FM070500 14010KT P6SM -SHRA BKN030=

USA.gov is the U.S. government's official web portal to all federal, state and local government web resources and services.